TFM - Tactical Decision Aid
ID: Runway Winds: CIG/VIS Threshold:

KSNY - Sidney/Carr Fld, NE, US

Updated at: 1045 UTC 23 Jun 2021
Latest TAF at: 0545 UTC 23 Jun 2021

TAF Board

Time0000Z 23/11Z 23/12Z 23/13Z 23/14Z 23/15Z 23/16Z 23/17Z 23/18Z 23/19Z 23/20Z 23/21Z 23/22Z 23/23Z>>
Type OBS PRVL PRVL PRVL PRVL PRVL PRVL PRVL PRVL PRVL PRVL PRVL PRVL PRVL
VIS >6 >6 >6 >6 >6 >6 >6 >6 >6 >6 >6 >6 >6
CIG -- -- -- -- -- -- -- -- -- -- -- -- --
Cover SKC SKC SKC SKC SKC SKC SKC SKC SKC SKC SKC SCT SCT
FltCat VFR VFR VFR VFR VFR VFR VFR VFR VFR VFR VFR VFR VFR
WX -- -- -- -- -- -- -- -- -- -- -- VCSH VCSH
WDir 200 200 200 200 280 280 280 280 280 280 280 280 280
WSpd 6 6 6 6 10 10 10 10 10 10 10 11 11
WGst -- -- -- -- -- -- -- -- -- -- -- 18 18

TDA Impact Legend

  None Marginal Slight Moderate High
Visibility (sm) >5 3≤X≤5 2≤X<3 1≤X<2 <1
Ceiling (100 ft) >30 10≤X≤30 8≤X<10 4≤X<8 <4
Wind Speed (kt) <15 15≤X<25 25≤X<30 ≥30
Wind Gust (kt) <15 15≤X<25 25≤X<35 ≥35
Weather No Wx Reported VCTS -TS,-FZRA TS,FZRA +TS,+FZRA
TAF
KSNY 230545Z 2306/2406 20006KT P6SM SKC
  FM231500 28010KT P6SM SKC
  FM232200 28011G18KT P6SM VCSH SCT100
  FM240100 04009KT P6SM BKN120 AMD NOT SKED


METAR


Radar Display
Forecast Discussion